Terminal Aerodrome Forecast
Issued by NWS Green Bay, WI

Home | Current Version | Previous Version | Text Only | Print | Product List | Glossary Off
Versions: 1 2 3 4 5 6 7 8 9 10 11 12 13 14 15 16 17 18 19 20 21 22 23 24 25 26 27 28 29 30 31 32 33 34 35 36

000
FTUS43 KGRB 221200 AAA
TAFGRB
TAF AMD
KGRB 221239Z 2213/2312 31012G15KT P6SM SCT035
      TEMPO 2213/2215 BKN035
     FM221500 33016G27KT P6SM SCT040
      TEMPO 2215/2218 BKN040
     FM222200 02009KT P6SM FEW050
     FM230200 04003KT P6SM SKC=

USA.gov is the U.S. government's official web portal to all federal, state and local government web resources and services.